Observation data for Snyder on 07/11/2018      Previous  Date       Current Mesonet Observations  Soil Data  Daily Summary Page  Observations in Plain Language
KSYS 110505Z 11008KT 24/19 A301 RMK A01 T02420186  RH  075%=      5-min Rain = 0
KSYS 110510Z 10009KT 24/19 A301 RMK A01 T02410186  RH  075%=      5-min Rain = 0
KSYS 110515Z 11008KT 24/19 A301 RMK A01 T02410186  RH  075%=      5-min Rain = 0
KSYS 110520Z 11008KT 24/19 A301 RMK A01 T02390186  RH  076%=      5-min Rain = 0
KSYS 110525Z 11008KT 24/19 A301 RMK A01 T02380186  RH  076%=      5-min Rain = 0
KSYS 110530Z 11008KT 24/19 A301 RMK A01 T02380186  RH  077%=      5-min Rain = 0
KSYS 110535Z 12009KT 24/19 A301 RMK A01 T02370187  RH  078%=      5-min Rain = 0
KSYS 110540Z 12008KT 24/19 A301 RMK A01 T02380187  RH  077%=      5-min Rain = 0
KSYS 110545Z 12008KT 24/19 A301 RMK A01 T02380187  RH  077%=      5-min Rain = 0
KSYS 110550Z 12007KT 24/19 A301 RMK A01 T02370187  RH  078%=      5-min Rain = 0
KSYS 110555Z 11008KT 24/19 A301 RMK A01 T02350187  RH  079%=      5-min Rain = 0
KSYS 110600Z 11008KT 23/19 A301 RMK A01 T02340187  RH  079%=      5-min Rain = 0
KSYS 110605Z 11007KT 23/19 A301 RMK A01 T02330187  RH  080%=      5-min Rain = 0
KSYS 110610Z 12008KT 23/19 A301 RMK A01 T02320187  RH  080%=      5-min Rain = 0
KSYS 110615Z 12007KT 23/19 A301 RMK A01 T02320187  RH  080%=      5-min Rain = 0
KSYS 110620Z 12007KT 23/19 A301 RMK A01 T02310187  RH  081%=      5-min Rain = 0
KSYS 110625Z 12007KT 23/19 A301 RMK A01 T02290186  RH  081%=      5-min Rain = 0
KSYS 110630Z 12007KT 23/19 A301 RMK A01 T02270186  RH  082%=      5-min Rain = 0
KSYS 110635Z 13007KT 23/19 A301 RMK A01 T02280186  RH  082%=      5-min Rain = 0
KSYS 110640Z 13007KT 23/19 A301 RMK A01 T02270185  RH  081%=      5-min Rain = 0
KSYS 110645Z 12006KT 23/19 A301 RMK A01 T02270185  RH  081%=      5-min Rain = 0
KSYS 110650Z 13006KT 23/18 A301 RMK A01 T02260184  RH  082%=      5-min Rain = 0
KSYS 110655Z 13006KT 23/18 A301 RMK A01 T02260184  RH  082%=      5-min Rain = 0
KSYS 110700Z 14005KT 23/18 A301 RMK A01 T02250184  RH  082%=      5-min Rain = 0
KSYS 110705Z 16004KT 22/18 A301 RMK A01 T02230183  RH  082%=      5-min Rain = 0
KSYS 110710Z 16005KT 22/18 A301 RMK A01 T02220184  RH  083%=      5-min Rain = 0
KSYS 110715Z 16005KT 22/18 A301 RMK A01 T02210184  RH  084%=      5-min Rain = 0
KSYS 110720Z 15005KT 22/19 A301 RMK A01 T02210185  RH  084%=      5-min Rain = 0
KSYS 110725Z 16004KT 22/18 A301 RMK A01 T02210184  RH  084%=      5-min Rain = 0
KSYS 110730Z 15004KT 22/18 A301 RMK A01 T02200184  RH  085%=      5-min Rain = 0
KSYS 110735Z 15004KT 22/18 A301 RMK A01 T02190184  RH  085%=      5-min Rain = 0
KSYS 110740Z 14004KT 22/18 A301 RMK A01 T02180184  RH  085%=      5-min Rain = 0
KSYS 110745Z 15004KT 22/18 A301 RMK A01 T02170184  RH  086%=      5-min Rain = 0
KSYS 110750Z 16004KT 22/18 A301 RMK A01 T02160184  RH  086%=      5-min Rain = 0
KSYS 110755Z 16005KT 22/18 A301 RMK A01 T02160184  RH  087%=      5-min Rain = 0
KSYS 110800Z 17005KT 22/19 A301 RMK A01 T02170185  RH  086%=      5-min Rain = 0
KSYS 110805Z 17006KT 22/19 A301 RMK A01 T02180185  RH  086%=      5-min Rain = 0
KSYS 110810Z 16005KT 22/18 A301 RMK A01 T02170184  RH  086%=      5-min Rain = 0
KSYS 110815Z 15006KT 22/18 A3011 RMK A01 T02170183  RH  086%=      5-min Rain = 0
KSYS 110820Z 15005KT 22/18 A3011 RMK A01 T02160183  RH  086%=      5-min Rain = 0
KSYS 110825Z 15005KT 22/18 A3011 RMK A01 T02150182  RH  086%=      5-min Rain = 0
KSYS 110830Z 15005KT 21/18 A301 RMK A01 T02140181  RH  086%=      5-min Rain = 0
KSYS 110835Z 14005KT 21/18 A301 RMK A01 T02130180  RH  086%=      5-min Rain = 0
KSYS 110840Z 15005KT 21/18 A301 RMK A01 T02120179  RH  086%=      5-min Rain = 0
KSYS 110845Z 15006KT 21/18 A301 RMK A01 T02120179  RH  086%=      5-min Rain = 0
KSYS 110850Z 16005KT 21/18 A301 RMK A01 T02130178  RH  085%=      5-min Rain = 0
KSYS 110855Z 16005KT 21/18 A301 RMK A01 T02130176  RH  084%=      5-min Rain = 0
KSYS 110900Z 16005KT 21/18 A3011 RMK A01 T02140175  RH  083%=      5-min Rain = 0
KSYS 110905Z 16006KT 22/17 A3011 RMK A01 T02150174  RH  082%=      5-min Rain = 0
KSYS 110910Z 16005KT 22/17 A3011 RMK A01 T02150173  RH  081%=      5-min Rain = 0
KSYS 110915Z 17005KT 22/17 A3011 RMK A01 T02150172  RH  080%=      5-min Rain = 0
KSYS 110920Z 17006KT 22/17 A3011 RMK A01 T02150171  RH  080%=      5-min Rain = 0
KSYS 110925Z 17006KT 22/17 A3011 RMK A01 T02150171  RH  080%=      5-min Rain = 0
KSYS 110930Z 17006KT 22/17 A3011 RMK A01 T02150170  RH  080%=      5-min Rain = 0
KSYS 110935Z 17006KT 22/17 A3011 RMK A01 T02150170  RH  079%=      5-min Rain = 0
KSYS 110940Z 17005KT 22/17 A3011 RMK A01 T02150169  RH  079%=      5-min Rain = 0
KSYS 110945Z 17005KT 22/17 A3011 RMK A01 T02150169  RH  079%=      5-min Rain = 0
KSYS 110950Z 17004KT 21/17 A3011 RMK A01 T02140168  RH  079%=      5-min Rain = 0
KSYS 110955Z 16005KT 21/17 A3011 RMK A01 T02140168  RH  079%=      5-min Rain = 0
KSYS 111000Z 16004KT 21/17 A3011 RMK A01 T02140167  RH  078%=      5-min Rain = 0
KSYS 111005Z 17004KT 21/17 A3011 RMK A01 T02140166  RH  078%=      5-min Rain = 0
KSYS 111010Z 17004KT 22/17 A3011 RMK A01 T02150166  RH  077%=      5-min Rain = 0
KSYS 111015Z 17004KT 21/17 A3011 RMK A01 T02140165  RH  077%=      5-min Rain = 0
KSYS 111020Z 17004KT 21/17 A301 RMK A01 T02140165  RH  077%=      5-min Rain = 0
KSYS 111025Z 17004KT 21/17 A301 RMK A01 T02140165  RH  077%=      5-min Rain = 0
KSYS 111030Z 17005KT 21/17 A301 RMK A01 T02140165  RH  078%=      5-min Rain = 0
KSYS 111035Z 17006KT 21/17 A301 RMK A01 T02130165  RH  077%=      5-min Rain = 0
KSYS 111040Z 17005KT 21/16 A301 RMK A01 T02140164  RH  077%=      5-min Rain = 0
KSYS 111045Z 18005KT 21/16 A301 RMK A01 T02140164  RH  076%=      5-min Rain = 0
KSYS 111050Z 18006KT 21/16 A301 RMK A01 T02140164  RH  077%=      5-min Rain = 0
KSYS 111055Z 18006KT 21/16 A301 RMK A01 T02140163  RH  077%=      5-min Rain = 0
KSYS 111100Z 17005KT 21/16 A3011 RMK A01 T02130164  RH  077%=      5-min Rain = 0
KSYS 111105Z 18005KT 21/16 A3011 RMK A01 T02110164  RH  078%=      5-min Rain = 0
KSYS 111110Z 18006KT 21/16 A3011 RMK A01 T02110163  RH  078%=      5-min Rain = 0
KSYS 111115Z 19006KT 21/16 A3011 RMK A01 T02110163  RH  078%=      5-min Rain = 0
KSYS 111120Z 19006KT 21/16 A3011 RMK A01 T02120164  RH  078%=      5-min Rain = 0
KSYS 111125Z 19005KT 21/16 A3011 RMK A01 T02130164  RH  077%=      5-min Rain = 0
KSYS 111130Z 18005KT 21/17 A3011 RMK A01 T02130165  RH  078%=      5-min Rain = 0
KSYS 111135Z 18005KT 21/17 A3011 RMK A01 T02110165  RH  079%=      5-min Rain = 0
KSYS 111140Z 18005KT 21/17 A3011 RMK A01 T02100165  RH  079%=      5-min Rain = 0
KSYS 111145Z 17005KT 21/17 A3011 RMK A01 T02080165  RH  080%=      5-min Rain = 0
KSYS 111150Z 16004KT 21/17 A3011 RMK A01 T02070165  RH  081%=      5-min Rain = 0
KSYS 111155Z 15004KT 21/17 A3011 RMK A01 T02060165  RH  081%=      5-min Rain = 0
KSYS 111200Z 15004KT 20/17 A3012 RMK A01 T02040165  RH  082%=      5-min Rain = 0
KSYS 111205Z 15005KT 20/17 A3012 RMK A01 T02030165  RH  083%=      5-min Rain = 0
KSYS 111210Z 16005KT 20/17 A3012 RMK A01 T02030165  RH  083%=      5-min Rain = 0
KSYS 111215Z 16005KT 21/17 A3012 RMK A01 T02050165  RH  082%=      5-min Rain = 0
KSYS 111220Z 17005KT 21/17 A3012 RMK A01 T02070166  RH  081%=      5-min Rain = 0
KSYS 111225Z 17005KT 21/17 A3012 RMK A01 T02100165  RH  079%=      5-min Rain = 0
KSYS 111230Z 17006KT 21/17 A3012 RMK A01 T02130166  RH  078%=      5-min Rain = 0
KSYS 111235Z 17006KT 21/17 A3012 RMK A01 T02130166  RH  078%=      5-min Rain = 0
KSYS 111240Z 17005KT 21/17 A3012 RMK A01 T02140167  RH  078%=      5-min Rain = 0
KSYS 111245Z 17006KT 22/17 A3012 RMK A01 T02170168  RH  078%=      5-min Rain = 0
KSYS 111250Z 17006KT 22/17 A3012 RMK A01 T02200170  RH  077%=      5-min Rain = 0
KSYS 111255Z 17007KT 22/17 A3012 RMK A01 T02230170  RH  076%=      5-min Rain = 0
KSYS 111300Z 18006KT 23/17 A3012 RMK A01 T02260172  RH  075%=      5-min Rain = 0
KSYS 111305Z 18006KT 23/17 A3012 RMK A01 T02290172  RH  074%=      5-min Rain = 0
KSYS 111310Z 18006KT 23/17 A3013 RMK A01 T02320173  RH  073%=      5-min Rain = 0
KSYS 111315Z 18005KT 24/17 A3013 RMK A01 T02360174  RH  072%=      5-min Rain = 0
KSYS 111320Z 18005KT 24/18 A3013 RMK A01 T02400176  RH  071%=      5-min Rain = 0
KSYS 111325Z 18005KT 24/18 A3013 RMK A01 T02440177  RH  070%=      5-min Rain = 0
KSYS 111330Z 18007KT 25/18 A3013 RMK A01 T02450177  RH  069%=      5-min Rain = 0
KSYS 111335Z 18006KT 25/18 A3013 RMK A01 T02470178  RH  069%=      5-min Rain = 0
KSYS 111340Z 18007KT 25/18 A3013 RMK A01 T02490179  RH  069%=      5-min Rain = 0
KSYS 111345Z 19008KT 25/18 A3013 RMK A01 T02510180  RH  068%=      5-min Rain = 0
KSYS 111350Z 19009KT 25/18 A3013 RMK A01 T02520181  RH  068%=      5-min Rain = 0
KSYS 111355Z 19010KT 25/18 A3013 RMK A01 T02540182  RH  068%=      5-min Rain = 0
KSYS 111400Z 19009G14KT 26/18 A3014 RMK A01 T02550183  RH  068%=      5-min Rain = 0
KSYS 111405Z 20008G14KT 26/18 A3014 RMK A01 T02570184  RH  068%=      5-min Rain = 0
KSYS 111410Z 20009KT 26/18 A3014 RMK A01 T02580184  RH  067%=      5-min Rain = 0
KSYS 111415Z 20009G14KT 26/19 A3014 RMK A01 T02590185  RH  067%=      5-min Rain = 0
KSYS 111420Z 19010KT 26/19 A3014 RMK A01 T02600185  RH  067%=      5-min Rain = 0
KSYS 111425Z 19010KT 26/19 A3014 RMK A01 T02610186  RH  067%=      5-min Rain = 0
KSYS 111430Z 19008KT 26/19 A3014 RMK A01 T02640188  RH  066%=      5-min Rain = 0
KSYS 111435Z 19010KT 27/19 A3014 RMK A01 T02670187  RH  065%=      5-min Rain = 0
KSYS 111440Z 19010KT 27/19 A3014 RMK A01 T02690186  RH  064%=      5-min Rain = 0
KSYS 111445Z 20011KT 27/19 A3014 RMK A01 T02680186  RH  064%=      5-min Rain = 0
KSYS 111450Z 18010KT 27/19 A3014 RMK A01 T02700187  RH  064%=      5-min Rain = 0
KSYS 111455Z 19011G16KT 27/19 A3014 RMK A01 T02720187  RH  063%=      5-min Rain = 0
KSYS 111500Z 19011KT 27/19 A3014 RMK A01 T02720186  RH  063%=      5-min Rain = 0
KSYS 111505Z 19010KT 27/19 A3014 RMK A01 T02740187  RH  062%=      5-min Rain = 0
KSYS 111510Z 18009G14KT 28/19 A3014 RMK A01 T02790189  RH  061%=      5-min Rain = 0
KSYS 111515Z 19010KT 28/19 A3014 RMK A01 T02830187  RH  059%=      5-min Rain = 0
KSYS 111520Z 19009G14KT 28/19 A3014 RMK A01 T02830187  RH  059%=      5-min Rain = 0
KSYS 111525Z 18009KT 29/19 A3014 RMK A01 T02860187  RH  058%=      5-min Rain = 0
KSYS 111530Z 19010KT 29/19 A3014 RMK A01 T02860186  RH  058%=      5-min Rain = 0
KSYS 111535Z 19009KT 29/19 A3014 RMK A01 T02880186  RH  057%=      5-min Rain = 0
KSYS 111540Z 18010KT 29/19 A3014 RMK A01 T02910186  RH  056%=      5-min Rain = 0
KSYS 111545Z 21009KT 29/18 A3014 RMK A01 T02940184  RH  055%=      5-min Rain = 0
KSYS 111550Z 19008KT 29/19 A3014 RMK A01 T02930186  RH  055%=      5-min Rain = 0
KSYS 111555Z 17009KT 30/19 A3014 RMK A01 T02970186  RH  054%=      5-min Rain = 0
KSYS 111600Z 18010KT 30/18 A3014 RMK A01 T02980184  RH  053%=      5-min Rain = 0
KSYS 111605Z 19009KT 30/18 A3014 RMK A01 T02990184  RH  053%=      5-min Rain = 0
KSYS 111610Z 18011KT 30/18 A3013 RMK A01 T03000183  RH  052%=      5-min Rain = 0
KSYS 111615Z 19009G14KT 30/18 A3013 RMK A01 T03010182  RH  052%=      5-min Rain = 0
KSYS 111620Z 20009G15KT 31/18 A3013 RMK A01 T03050183  RH  051%=      5-min Rain = 0
KSYS 111625Z 19010KT 31/18 A3013 RMK A01 T03080181  RH  049%=      5-min Rain = 0
KSYS 111630Z 20010KT 31/18 A3013 RMK A01 T03090182  RH  049%=      5-min Rain = 0
KSYS 111635Z 20008KT 31/18 A3013 RMK A01 T03120183  RH  049%=      5-min Rain = 0
KSYS 111640Z 18011G16KT 31/18 A3013 RMK A01 T03140177  RH  046%=      5-min Rain = 0
KSYS 111645Z 19010KT 31/18 A3013 RMK A01 T03120179  RH  048%=      5-min Rain = 0
KSYS 111650Z 18009KT 32/18 A3013 RMK A01 T03160180  RH  047%=      5-min Rain = 0
KSYS 111655Z 17009G15KT 32/18 A3013 RMK A01 T03230179  RH  044%=      5-min Rain = 0
KSYS 111700Z 19009G14KT 32/18 A3013 RMK A01 T03220177  RH  044%=      5-min Rain = 0
KSYS 111705Z 19008KT 32/18 A3013 RMK A01 T03210179  RH  045%=      5-min Rain = 0
KSYS 111710Z 18009G14KT 32/17 A3013 RMK A01 T03220172  RH  043%=      5-min Rain = 0
KSYS 111715Z 17010G15KT 32/16 A3013 RMK A01 T03220164  RH  041%=      5-min Rain = 0
KSYS 111720Z 17009G15KT 33/16 A3012 RMK A01 T03250162  RH  039%=      5-min Rain = 0
KSYS 111725Z 17011KT 33/16 A3012 RMK A01 T03260160  RH  039%=      5-min Rain = 0
KSYS 111730Z 16009G15KT 33/16 A3012 RMK A01 T03270160  RH  039%=      5-min Rain = 0
KSYS 111735Z 16011KT 33/15 A3012 RMK A01 T03320148  RH  035%=      5-min Rain = 0
KSYS 111740Z 17011G16KT 33/15 A3012 RMK A01 T03330145  RH  034%=      5-min Rain = 0
KSYS 111745Z 17012G17KT 33/15 A3011 RMK A01 T03310146  RH  034%=      5-min Rain = 0
KSYS 111750Z 17013KT 33/15 A3011 RMK A01 T03310146  RH  034%=      5-min Rain = 0
KSYS 111755Z 15013KT 34/14 A3011 RMK A01 T03350144  RH  033%=      5-min Rain = 0
KSYS 111800Z 15016G22KT 34/15 A3011 RMK A01 T03370145  RH  033%=      5-min Rain = 0
KSYS 111805Z 15014KT 34/15 A3011 RMK A01 T03360149  RH  034%=      5-min Rain = 0
KSYS 111810Z 16012G18KT 34/15 A3011 RMK A01 T03360152  RH  035%=      5-min Rain = 0
KSYS 111815Z 16014G19KT 34/14 A3011 RMK A01 T03390141  RH  032%=      5-min Rain = 0
KSYS 111820Z 18014G19KT 34/14 A3011 RMK A01 T03390141  RH  032%=      5-min Rain = 0
KSYS 111825Z 17014G19KT 34/14 A301 RMK A01 T03380142  RH  032%=      5-min Rain = 0
KSYS 111830Z 17012G17KT 34/15 A301 RMK A01 T03380145  RH  033%=      5-min Rain = 0
KSYS 111835Z 17012G19KT 34/15 A301 RMK A01 T03400147  RH  033%=      5-min Rain = 0
KSYS 111840Z 15012KT 34/15 A301 RMK A01 T03420151  RH  033%=      5-min Rain = 0
KSYS 111845Z 16013KT 34/15 A301 RMK A01 T03410149  RH  033%=      5-min Rain = 0
KSYS 111850Z 16013G19KT 34/15 A301 RMK A01 T03390152  RH  034%=      5-min Rain = 0
KSYS 111855Z 17014G20KT 34/15 A3009 RMK A01 T03410148  RH  033%=      5-min Rain = 0
KSYS 111900Z 16011G17KT 35/15 A3009 RMK A01 T03450152  RH  033%=      5-min Rain = 0
KSYS 111905Z 17015G21KT 34/15 A3009 RMK A01 T03440145  RH  032%=      5-min Rain = 0
KSYS 111910Z 16015G22KT 34/15 A3009 RMK A01 T03430146  RH  032%=      5-min Rain = 0
KSYS 111915Z 16014G23KT 35/15 A3008 RMK A01 T03450146  RH  032%=      5-min Rain = 0
KSYS 111920Z 15014G21KT 35/15 A3008 RMK A01 T03450145  RH  032%=      5-min Rain = 0
KSYS 111925Z 18014G20KT 35/14 A3008 RMK A01 T03470139  RH  030%=      5-min Rain = 0
KSYS 111930Z 19012G20KT 35/14 A3008 RMK A01 T03460139  RH  030%=      5-min Rain = 0
KSYS 111935Z 16012G17KT 35/14 A3007 RMK A01 T03480141  RH  030%=      5-min Rain = 0
KSYS 111940Z 16014G20KT 35/14 A3007 RMK A01 T03510142  RH  030%=      5-min Rain = 0
KSYS 111945Z 15014KT 35/14 A3007 RMK A01 T03510138  RH  029%=      5-min Rain = 0
KSYS 111950Z 17011G16KT 35/14 A3006 RMK A01 T03540142  RH  029%=      5-min Rain = 0
KSYS 111955Z 17012KT 35/14 A3006 RMK A01 T03530136  RH  028%=      5-min Rain = 0
KSYS 112000Z 18013G19KT 36/14 A3006 RMK A01 T03550139  RH  029%=      5-min Rain = 0
KSYS 112005Z 17011G17KT 36/14 A3005 RMK A01 T03560142  RH  029%=      5-min Rain = 0
KSYS 112010Z 14013G18KT 36/15 A3005 RMK A01 T03560146  RH  030%=      5-min Rain = 0
KSYS 112015Z 16013KT 35/14 A3005 RMK A01 T03490140  RH  030%=      5-min Rain = 0
KSYS 112020Z 18010G21KT 35/13 A3005 RMK A01 T03530133  RH  028%=      5-min Rain = 0
KSYS 112025Z 15016KT 36/13 A3004 RMK A01 T03570132  RH  027%=      5-min Rain = 0
KSYS 112030Z 16014G20KT 36/13 A3004 RMK A01 T03550130  RH  027%=      5-min Rain = 0
KSYS 112035Z 17014G19KT 35/13 A3004 RMK A01 T03530132  RH  028%=      5-min Rain = 0
KSYS 112040Z 15014G21KT 36/13 A3004 RMK A01 T03550134  RH  028%=      5-min Rain = 0
KSYS 112045Z 14014G19KT 36/13 A3003 RMK A01 T03580132  RH  027%=      5-min Rain = 0
KSYS 112050Z 15012G19KT 36/14 A3003 RMK A01 T03610135  RH  027%=      5-min Rain = 0
KSYS 112055Z 15014G19KT 36/13 A3003 RMK A01 T03570133  RH  027%=      5-min Rain = 0
KSYS 112100Z 15012KT 35/14 A3003 RMK A01 T03540135  RH  028%=      5-min Rain = 0
KSYS 112105Z 18012G17KT 36/13 A3003 RMK A01 T03570131  RH  027%=      5-min Rain = 0
KSYS 112110Z 17013G19KT 36/13 A3003 RMK A01 T03570129  RH  026%=      5-min Rain = 0
KSYS 112115Z 16011G16KT 36/14 A3003 RMK A01 T03590135  RH  027%=      5-min Rain = 0
KSYS 112120Z 15013G18KT 37/14 A3002 RMK A01 T03650138  RH  027%=      5-min Rain = 0
KSYS 112125Z 15014G19KT 36/14 A3002 RMK A01 T03620139  RH  027%=      5-min Rain = 0
KSYS 112130Z 16011G18KT 36/13 A3002 RMK A01 T03590131  RH  026%=      5-min Rain = 0
KSYS 112135Z 15013G19KT 36/13 A3002 RMK A01 T03600134  RH  027%=      5-min Rain = 0
KSYS 112140Z 16014G19KT 36/13 A3001 RMK A01 T03600131  RH  026%=      5-min Rain = 0
KSYS 112145Z 16013KT 36/13 A3001 RMK A01 T03580129  RH  026%=      5-min Rain = 0
KSYS 112150Z 17010G16KT 36/13 A3001 RMK A01 T03560130  RH  027%=      5-min Rain = 0
KSYS 112155Z 15014G20KT 36/13 A3001 RMK A01 T03590134  RH  027%=      5-min Rain = 0
KSYS 112200Z 15013G18KT 36/13 A30 RMK A01 T03590133  RH  027%=      5-min Rain = 0
KSYS 112205Z 15015G20KT 36/13 A30 RMK A01 T03580133  RH  027%=      5-min Rain = 0
KSYS 112210Z 15013G18KT 36/13 A30 RMK A01 T03570132  RH  027%=      5-min Rain = 0
KSYS 112215Z 14012KT 36/13 A30 RMK A01 T03580132  RH  027%=      5-min Rain = 0
KSYS 112220Z 15012G22KT 36/13 A30 RMK A01 T03600134  RH  027%=      5-min Rain = 0
KSYS 112225Z 15014KT 36/13 A30 RMK A01 T03590131  RH  027%=      5-min Rain = 0
KSYS 112230Z 15014G19KT 36/13 A2999 RMK A01 T03570132  RH  027%=      5-min Rain = 0
KSYS 112235Z 15013G18KT 36/13 A2999 RMK A01 T03580134  RH  027%=      5-min Rain = 0
KSYS 112240Z 15012KT 36/13 A2999 RMK A01 T03570133  RH  027%=      5-min Rain = 0
KSYS 112245Z 15011KT 35/13 A2999 RMK A01 T03480134  RH  029%=      5-min Rain = 0
KSYS 112250Z 14011G16KT 34/13 A2999 RMK A01 T03410133  RH  030%=      5-min Rain = 0
KSYS 112255Z 14011KT 34/13 A2999 RMK A01 T03390130  RH  029%=      5-min Rain = 0
KSYS 112300Z 14011G17KT 35/13 A2999 RMK A01 T03480132  RH  028%=      5-min Rain = 0
KSYS 112305Z 16012KT 35/13 A2999 RMK A01 T03540132  RH  027%=      5-min Rain = 0
KSYS 112310Z 15011KT 35/13 A2999 RMK A01 T03470132  RH  029%=      5-min Rain = 0
KSYS 112315Z 15012G18KT 35/13 A2999 RMK A01 T03460130  RH  028%=      5-min Rain = 0
KSYS 112320Z 15012KT 35/13 A2998 RMK A01 T03490131  RH  028%=      5-min Rain = 0
KSYS 112325Z 14013KT 35/13 A2998 RMK A01 T03510128  RH  027%=      5-min Rain = 0
KSYS 112330Z 15012G18KT 35/13 A2998 RMK A01 T03530130  RH  027%=      5-min Rain = 0
KSYS 112335Z 14011G18KT 35/13 A2998 RMK A01 T03520128  RH  027%=      5-min Rain = 0
KSYS 112340Z 14011G16KT 35/13 A2998 RMK A01 T03520130  RH  027%=      5-min Rain = 0
KSYS 112345Z 14012G17KT 35/13 A2998 RMK A01 T03520129  RH  027%=      5-min Rain = 0
KSYS 112350Z 14012G18KT 35/13 A2998 RMK A01 T03480128  RH  028%=      5-min Rain = 0
KSYS 112355Z 15007KT 34/13 A2998 RMK A01 T03440131  RH  029%=      5-min Rain = 0
KSYS 120000Z 15010G15KT 35/13 A2998 RMK A01 T03450131  RH  029%=      5-min Rain = 0
KSYS 120005Z 15012KT 35/13 A2998 RMK A01 T03480130  RH  028%=      5-min Rain = 0
KSYS 120010Z 15012KT 35/13 A2998 RMK A01 T03480128  RH  028%=      5-min Rain = 0
KSYS 120015Z 14010KT 35/13 A2998 RMK A01 T03500129  RH  027%=      5-min Rain = 0
KSYS 120020Z 14012KT 35/13 A2998 RMK A01 T03490125  RH  027%=      5-min Rain = 0
KSYS 120025Z 16009G15KT 35/13 A2998 RMK A01 T03470130  RH  028%=      5-min Rain = 0
KSYS 120030Z 17010G15KT 35/13 A2999 RMK A01 T03450130  RH  029%=      5-min Rain = 0
KSYS 120035Z 17011KT 34/13 A2999 RMK A01 T03420131  RH  029%=      5-min Rain = 0
KSYS 120040Z 18010G15KT 34/13 A2999 RMK A01 T03400130  RH  029%=      5-min Rain = 0
KSYS 120045Z 16009KT 34/13 A2999 RMK A01 T03370130  RH  030%=      5-min Rain = 0
KSYS 120050Z 16009KT 33/13 A2999 RMK A01 T03330130  RH  030%=      5-min Rain = 0
KSYS 120055Z 16008KT 33/13 A2999 RMK A01 T03300129  RH  031%=      5-min Rain = 0
KSYS 120100Z 16007KT 33/13 A2999 RMK A01 T03300130  RH  031%=      5-min Rain = 0
KSYS 120105Z 16007KT 33/13 A2999 RMK A01 T03320129  RH  030%=      5-min Rain = 0
KSYS 120110Z 16008KT 33/13 A2999 RMK A01 T03330128  RH  030%=      5-min Rain = 0
KSYS 120115Z 16009KT 33/13 A2999 RMK A01 T03320128  RH  030%=      5-min Rain = 0
KSYS 120120Z 16007KT 33/13 A30 RMK A01 T03310131  RH  031%=      5-min Rain = 0
KSYS 120125Z 16006KT 33/13 A30 RMK A01 T03290134  RH  032%=      5-min Rain = 0
KSYS 120130Z 16006KT 33/13 A30 RMK A01 T03270134  RH  032%=      5-min Rain = 0
KSYS 120135Z 16006KT 32/13 A30 RMK A01 T03240133  RH  033%=      5-min Rain = 0
KSYS 120140Z 16006KT 32/13 A30 RMK A01 T03220133  RH  033%=      5-min Rain = 0
KSYS 120145Z 15006KT 32/13 A30 RMK A01 T03180134  RH  034%=      5-min Rain = 0
KSYS 120150Z 15006KT 32/14 A30 RMK A01 T03150136  RH  035%=      5-min Rain = 0
KSYS 120155Z 15006KT 31/14 A30 RMK A01 T03120136  RH  036%=      5-min Rain = 0
KSYS 120200Z 14006KT 31/14 A30 RMK A01 T03100137  RH  036%=      5-min Rain = 0
KSYS 120205Z 14007KT 31/14 A30 RMK A01 T03070138  RH  037%=      5-min Rain = 0
KSYS 120210Z 13008KT 31/14 A30 RMK A01 T03050136  RH  037%=      5-min Rain = 0
KSYS 120215Z 13008KT 31/13 A3001 RMK A01 T03060132  RH  036%=      5-min Rain = 0
KSYS 120220Z 14008KT 31/13 A3001 RMK A01 T03070129  RH  035%=      5-min Rain = 0
KSYS 120225Z 14009KT 31/13 A3001 RMK A01 T03080128  RH  035%=      5-min Rain = 0
KSYS 120230Z 14008KT 31/13 A3002 RMK A01 T03080129  RH  035%=      5-min Rain = 0
KSYS 120235Z 13007KT 31/13 A3002 RMK A01 T03070129  RH  035%=      5-min Rain = 0
KSYS 120240Z 14007KT 31/13 A3002 RMK A01 T03050130  RH  036%=      5-min Rain = 0
KSYS 120245Z 13008KT 30/13 A3002 RMK A01 T03040130  RH  036%=      5-min Rain = 0
KSYS 120250Z 13008KT 30/13 A3002 RMK A01 T03030131  RH  036%=      5-min Rain = 0
KSYS 120255Z 13009KT 30/13 A3002 RMK A01 T03010130  RH  037%=      5-min Rain = 0
KSYS 120300Z 13009KT 30/13 A3003 RMK A01 T03000130  RH  037%=      5-min Rain = 0
KSYS 120305Z 13009KT 30/13 A3003 RMK A01 T03000130  RH  037%=      5-min Rain = 0
KSYS 120310Z 13009KT 30/13 A3003 RMK A01 T02990131  RH  037%=      5-min Rain = 0
KSYS 120315Z 13009KT 30/13 A3003 RMK A01 T02970132  RH  038%=      5-min Rain = 0
KSYS 120320Z 13009KT 30/13 A3003 RMK A01 T02950133  RH  038%=      5-min Rain = 0
KSYS 120325Z 13009KT 30/13 A3004 RMK A01 T02950133  RH  039%=      5-min Rain = 0
KSYS 120330Z 13009KT 29/13 A3004 RMK A01 T02940134  RH  039%=      5-min Rain = 0
KSYS 120335Z 13009KT 29/13 A3004 RMK A01 T02940134  RH  039%=      5-min Rain = 0
KSYS 120340Z 14008KT 29/13 A3004 RMK A01 T02930134  RH  039%=      5-min Rain = 0
KSYS 120345Z 14008KT 29/14 A3004 RMK A01 T02930135  RH  040%=      5-min Rain = 0
KSYS 120350Z 14008KT 29/14 A3004 RMK A01 T02910136  RH  040%=      5-min Rain = 0
KSYS 120355Z 14009KT 29/14 A3004 RMK A01 T02900137  RH  041%=      5-min Rain = 0
KSYS 120400Z 14009KT 29/14 A3004 RMK A01 T02890138  RH  041%=      5-min Rain = 0
KSYS 120405Z 15008KT 29/14 A3004 RMK A01 T02880139  RH  042%=      5-min Rain = 0
KSYS 120410Z 14008KT 29/14 A3004 RMK A01 T02870139  RH  042%=      5-min Rain = 0
KSYS 120415Z 14008KT 29/14 A3004 RMK A01 T02860140  RH  042%=      5-min Rain = 0
KSYS 120420Z 14008KT 29/14 A3004 RMK A01 T02860140  RH  043%=      5-min Rain = 0
KSYS 120425Z 13007KT 29/14 A3005 RMK A01 T02860140  RH  043%=      5-min Rain = 0
KSYS 120430Z 13007KT 29/14 A3005 RMK A01 T02860140  RH  043%=      5-min Rain = 0
KSYS 120435Z 13008KT 29/14 A3005 RMK A01 T02860140  RH  043%=      5-min Rain = 0
KSYS 120440Z 13008KT 29/14 A3005 RMK A01 T02850139  RH  043%=      5-min Rain = 0
KSYS 120445Z 13008KT 29/14 A3005 RMK A01 T02850139  RH  043%=      5-min Rain = 0
KSYS 120450Z 13008KT 28/14 A3005 RMK A01 T02840140  RH  043%=      5-min Rain = 0
KSYS 120455Z 12009KT 28/14 A3005 RMK A01 T02830140  RH  043%=      5-min Rain = 0
KSYS 120500Z 13009KT 28/14 A3005 RMK A01 T02820140  RH  044%=      5-min Rain = 0

Page generated in 0.0095 seconds.